createdAt,value
2018-09-18T00:01:26.706Z,99834.59
2018-09-18T00:04:31.347Z,99838.25
2018-09-18T00:07:35.931Z,99834.84
2018-09-18T00:10:40.378Z,99836.28
2018-09-18T00:13:45.024Z,99832.68
2018-09-18T00:16:49.620Z,99834.58
2018-09-18T00:19:54.160Z,99838.69
2018-09-18T00:22:58.761Z,99828.00
2018-09-18T00:26:03.342Z,99826.82
2018-09-18T00:29:07.991Z,99829.57
2018-09-18T00:32:12.555Z,99822.73
2018-09-18T00:35:17.172Z,99820.84
2018-09-18T00:38:21.648Z,99830.53
2018-09-18T00:41:26.907Z,99824.63
2018-09-18T00:44:31.429Z,99828.08
2018-09-18T00:47:35.949Z,99822.94
2018-09-18T00:50:40.412Z,99826.99
2018-09-18T00:53:44.852Z,99824.09
2018-09-18T00:56:49.353Z,99830.41
2018-09-18T00:59:53.897Z,99826.24
2018-09-18T01:02:58.371Z,99828.57
2018-09-18T01:06:03.240Z,99827.30
2018-09-18T01:09:09.887Z,99829.79
2018-09-18T01:12:14.408Z,99828.88
2018-09-18T01:15:18.978Z,99823.75
2018-09-18T01:18:23.588Z,99825.63
2018-09-18T01:21:28.195Z,99825.42
2018-09-18T01:24:32.662Z,99824.90
2018-09-18T01:27:37.080Z,99827.77
2018-09-18T01:30:42.193Z,99820.51
2018-09-18T01:33:46.699Z,99810.20
2018-09-18T01:36:51.179Z,99812.56
2018-09-18T01:39:55.748Z,99808.03
2018-09-18T01:43:00.283Z,99807.11
2018-09-18T01:46:04.974Z,99811.55
2018-09-18T01:49:09.493Z,99809.28
2018-09-18T01:52:14.079Z,99813.88
2018-09-18T01:55:18.603Z,99819.27
2018-09-18T01:58:23.072Z,99814.50
2018-09-18T02:01:27.564Z,99808.42
2018-09-18T02:04:32.894Z,99813.16
2018-09-18T02:07:37.434Z,99816.89
2018-09-18T02:10:42.035Z,99821.33
2018-09-18T02:13:46.474Z,99815.63
2018-09-18T02:16:51.077Z,99818.74
2018-09-18T02:19:55.505Z,99813.13
2018-09-18T02:23:00.584Z,99815.12
2018-09-18T02:26:05.424Z,99818.64
2018-09-18T02:29:09.962Z,99812.83
2018-09-18T02:32:14.603Z,99815.63
2018-09-18T02:35:19.271Z,99811.78
2018-09-18T02:38:23.760Z,99816.50
2018-09-18T02:41:28.398Z,99812.77
2018-09-18T02:44:33.017Z,99809.48
2018-09-18T02:47:37.541Z,99813.43
2018-09-18T02:50:42.177Z,99812.70
2018-09-18T02:53:46.695Z,99814.46
2018-09-18T02:56:51.329Z,99814.13
2018-09-18T02:59:55.909Z,99816.94
2018-09-18T03:03:00.469Z,99814.56
2018-09-18T03:06:04.984Z,99814.25
2018-09-18T03:09:10.807Z,99817.89
2018-09-18T03:12:15.207Z,99820.89
2018-09-18T03:15:19.890Z,99822.94
2018-09-18T03:18:24.448Z,99818.08
2018-09-18T03:21:29.055Z,99816.12
2018-09-18T03:24:33.673Z,99818.89
2018-09-18T03:27:38.345Z,99815.08
2018-09-18T03:30:42.941Z,99820.05
2018-09-18T03:33:47.720Z,99816.20
2018-09-18T03:36:52.554Z,99819.52
2018-09-18T03:39:57.321Z,99822.44
2018-09-18T03:43:02.040Z,99820.33
2018-09-18T03:46:06.764Z,99813.72
2018-09-18T03:49:11.570Z,99812.45
2018-09-18T03:52:16.409Z,99816.49
2018-09-18T03:55:21.050Z,99816.30
2018-09-18T03:58:25.713Z,99814.35
2018-09-18T04:01:30.157Z,99808.23
2018-09-18T04:04:34.838Z,99817.95
2018-09-18T04:07:39.274Z,99817.09
2018-09-18T04:10:43.735Z,99807.47
2018-09-18T04:13:48.271Z,99814.93
2018-09-18T04:16:52.755Z,99811.12
2018-09-18T04:19:57.358Z,99811.83
2018-09-18T04:23:02.032Z,99818.25
2018-09-18T04:26:06.896Z,99813.48
2018-09-18T04:29:11.607Z,99813.59
2018-09-18T04:32:16.246Z,99818.22
2018-09-18T04:35:20.814Z,99818.63
2018-09-18T04:38:25.248Z,99814.48
2018-09-18T04:41:29.702Z,99810.45
2018-09-18T04:44:34.183Z,99808.37
2018-09-18T04:47:38.631Z,99811.98
2018-09-18T04:50:43.111Z,99816.31
2018-09-18T04:53:47.825Z,99819.86
2018-09-18T04:56:52.313Z,99823.89
2018-09-18T04:59:56.854Z,99820.87
2018-09-18T05:03:01.314Z,99823.59
2018-09-18T05:06:05.868Z,99824.94
2018-09-18T05:09:11.170Z,99819.05
2018-09-18T05:12:15.765Z,99820.80
2018-09-18T05:15:20.628Z,99823.33
2018-09-18T05:18:25.166Z,99822.17
2018-09-18T05:21:29.821Z,99826.97
2018-09-18T05:24:34.369Z,99830.28
2018-09-18T05:27:39.745Z,99832.33
2018-09-18T05:30:44.572Z,99834.73
2018-09-18T05:33:49.171Z,99834.02
2018-09-18T05:36:53.830Z,99836.33
2018-09-18T05:39:58.325Z,99828.16
2018-09-18T05:43:02.826Z,99829.84
2018-09-18T05:46:07.471Z,99828.57
2018-09-18T05:49:11.918Z,99827.14
2018-09-18T05:52:16.500Z,99826.31
2018-09-18T05:55:21.020Z,99830.63
2018-09-18T05:58:25.483Z,99834.84
2018-09-18T06:01:29.944Z,99841.80
2018-09-18T06:04:34.465Z,99844.66
2018-09-18T06:07:39.379Z,99846.20
2018-09-18T06:10:43.966Z,99848.46
2018-09-18T06:13:48.479Z,99842.88
2018-09-18T06:16:53.164Z,99842.56
2018-09-18T06:19:57.750Z,99844.24
2018-09-18T06:23:03.311Z,99842.59
2018-09-18T06:26:07.923Z,99844.59
2018-09-18T06:29:12.348Z,99838.77
2018-09-18T06:32:16.836Z,99842.33
2018-09-18T06:35:21.364Z,99842.08
2018-09-18T06:38:25.829Z,99845.07
2018-09-18T06:41:30.338Z,99840.80
2018-09-18T06:44:34.771Z,99846.42
2018-09-18T06:47:39.266Z,99846.12
2018-09-18T06:50:43.778Z,99848.70
2018-09-18T06:53:48.502Z,99840.34
2018-09-18T06:56:53.001Z,99847.49
2018-09-18T06:59:57.508Z,99844.00
2018-09-18T07:03:01.964Z,99844.13
2018-09-18T07:06:06.646Z,99836.64
2018-09-18T07:09:11.100Z,99843.25
2018-09-18T07:12:15.592Z,99842.00
2018-09-18T07:15:20.140Z,99848.31
2018-09-18T07:18:24.575Z,99849.17
2018-09-18T07:21:30.064Z,99848.58
2018-09-18T07:24:34.539Z,99841.09
2018-09-18T07:27:38.987Z,99841.97
2018-09-18T07:30:43.525Z,99843.08
2018-09-18T07:33:48.038Z,99841.50
2018-09-18T07:36:52.523Z,99838.90
2018-09-18T07:39:57.205Z,99842.52
2018-09-18T07:43:01.671Z,99838.30
2018-09-18T07:46:06.464Z,99842.55
2018-09-18T07:49:10.907Z,99837.89
2018-09-18T07:52:15.704Z,99845.97
2018-09-18T07:55:20.149Z,99838.94
2018-09-18T07:58:24.675Z,99836.91
2018-09-18T08:01:29.720Z,99836.00
2018-09-18T08:04:34.171Z,99837.20
2018-09-18T08:07:38.631Z,99835.86
2018-09-18T08:10:43.220Z,99837.00
2018-09-18T08:13:47.664Z,99831.97
2018-09-18T08:16:52.223Z,99825.27
2018-09-18T08:19:56.840Z,99829.81
2018-09-18T08:23:01.389Z,99829.81
2018-09-18T08:26:05.887Z,99821.91
2018-09-18T08:29:10.493Z,99824.35
2018-09-18T08:32:15.948Z,99828.42
2018-09-18T08:35:20.400Z,99827.92
2018-09-18T08:38:25.054Z,99826.53
2018-09-18T08:41:29.547Z,99823.23
2018-09-18T08:44:34.048Z,99829.99
2018-09-18T08:47:38.589Z,99829.45
2018-09-18T08:50:43.145Z,99818.44
2018-09-18T08:53:47.639Z,99820.84
2018-09-18T08:56:52.195Z,99813.97
2018-09-18T08:59:56.690Z,99814.14
2018-09-18T09:03:01.261Z,99812.31
2018-09-18T09:06:05.884Z,99807.92
2018-09-18T09:09:14.275Z,99815.23
2018-09-18T09:12:18.675Z,99803.23
2018-09-18T09:15:23.317Z,99801.75
2018-09-18T09:18:27.937Z,99799.16
2018-09-18T09:21:33.116Z,99799.47
2018-09-18T09:24:39.160Z,99802.25
2018-09-18T09:27:44.384Z,99793.72
2018-09-18T09:30:48.952Z,99782.27
2018-09-18T09:33:53.459Z,99777.81
2018-09-18T09:37:00.777Z,99786.41
2018-09-18T09:40:06.310Z,99776.61
2018-09-18T09:43:11.487Z,99772.39
2018-09-18T09:46:15.990Z,99768.02
2018-09-18T09:49:25.615Z,99760.46
2018-09-18T09:52:31.765Z,99758.56
2018-09-18T09:59:17.893Z,99761.66
2018-09-18T10:02:27.618Z,99757.96
2018-09-18T10:05:32.402Z,99752.77
2018-09-18T10:08:37.584Z,99747.02
2018-09-18T10:11:42.351Z,99735.72
2018-09-18T10:14:47.071Z,99741.79
2018-09-18T10:22:01.617Z,99730.78
2018-09-18T10:25:06.618Z,99726.56
2018-09-18T10:28:11.179Z,99724.70
2018-09-18T10:31:15.833Z,99729.08
2018-09-18T10:34:20.463Z,99715.41
2018-09-18T10:37:25.067Z,99725.66
2018-09-18T10:40:29.689Z,99713.45
2018-09-18T10:43:34.578Z,99715.20
2018-09-18T10:46:39.348Z,99706.51
2018-09-18T10:49:43.924Z,99698.11
2018-09-18T10:53:34.264Z,99697.48
2018-09-18T10:56:39.567Z,99695.53
2018-09-18T10:59:44.377Z,99690.78
2018-09-18T11:02:49.161Z,99685.47
2018-09-18T11:05:53.865Z,99682.34
2018-09-18T11:08:58.525Z,99680.86
2018-09-18T11:12:03.529Z,99672.74
2018-09-18T11:15:08.248Z,99671.06
2018-09-18T11:18:12.907Z,99670.98
2018-09-18T11:21:17.502Z,99667.95
2018-09-18T11:24:22.265Z,99668.50
2018-09-18T11:27:26.900Z,99667.22
2018-09-18T11:30:31.553Z,99647.14
2018-09-18T11:33:36.177Z,99641.73
2018-09-18T11:36:40.753Z,99644.94
2018-09-18T11:39:45.417Z,99638.45
2018-09-18T11:42:49.924Z,99630.00
2018-09-18T11:45:54.822Z,99632.41
2018-09-18T11:48:59.530Z,99620.19
2018-09-18T11:52:04.608Z,99614.08
2018-09-18T11:55:09.155Z,99609.44
2018-09-18T11:58:14.217Z,99603.25
2018-09-18T12:01:19.089Z,99590.80
2018-09-18T12:04:46.317Z,99592.64
2018-09-18T12:08:23.038Z,99594.61
2018-09-18T12:15:54.226Z,99590.39
2018-09-18T12:23:00.243Z,99579.59
2018-09-18T12:26:05.746Z,99580.34
2018-09-18T12:29:10.357Z,99583.93
2018-09-18T12:32:14.920Z,99572.09
2018-09-18T12:35:19.610Z,99563.77
2018-09-18T12:38:24.770Z,99561.87
2018-09-18T12:41:29.361Z,99562.28
2018-09-18T12:44:34.254Z,99569.27
2018-09-18T12:47:38.802Z,99566.76
2018-09-18T12:50:43.525Z,99559.58
2018-09-18T12:53:48.543Z,99556.61
2018-09-18T12:56:53.245Z,99546.56
2018-09-18T12:59:57.861Z,99543.98
2018-09-18T13:03:02.365Z,99537.56
2018-09-18T13:06:07.380Z,99535.30
2018-09-18T13:09:13.349Z,99529.73
2018-09-18T13:12:17.953Z,99534.97
2018-09-18T13:15:23.421Z,99532.92
2018-09-18T13:18:28.100Z,99532.73
2018-09-18T13:22:11.288Z,99529.22
2018-09-18T13:25:15.970Z,99527.48
2018-09-18T13:28:20.527Z,99531.98
2018-09-18T13:31:25.417Z,99533.17
2018-09-18T13:34:30.073Z,99537.63
2018-09-18T13:37:34.698Z,99532.65
2018-09-18T13:40:39.351Z,99527.97
2018-09-18T13:43:44.017Z,99530.99
2018-09-18T13:46:48.665Z,99520.79
2018-09-18T13:49:53.310Z,99513.42
2018-09-18T13:52:58.054Z,99518.67
2018-09-18T13:56:02.781Z,99515.05
2018-09-18T13:59:07.419Z,99511.05
2018-09-18T14:02:12.250Z,99507.01
2018-09-18T14:05:16.924Z,99506.52
2018-09-18T14:08:21.563Z,99508.70
2018-09-18T14:11:26.191Z,99506.17
2018-09-18T14:15:01.712Z,99504.11
2018-09-18T14:18:06.410Z,99509.38
2018-09-18T14:21:11.141Z,99498.41
2018-09-18T14:24:15.781Z,99505.74
2018-09-18T14:27:20.528Z,99501.33
2018-09-18T14:34:30.313Z,99498.83
2018-09-18T14:37:34.937Z,99504.48
2018-09-18T14:41:14.391Z,99495.63
2018-09-18T14:48:12.884Z,99490.03
2018-09-18T14:51:17.565Z,99486.73
2018-09-18T14:54:22.531Z,99476.08
2018-09-18T14:57:36.107Z,99481.84
2018-09-18T15:00:40.704Z,99482.23
2018-09-18T15:03:45.405Z,99484.05
2018-09-18T15:06:50.768Z,99488.52
2018-09-18T15:09:55.345Z,99481.22
2018-09-18T15:16:53.684Z,99483.84
2018-09-18T15:19:58.371Z,99489.45
2018-09-18T15:23:03.268Z,99493.53
2018-09-18T15:26:12.381Z,99489.04
2018-09-18T15:29:17.095Z,99496.55
2018-09-18T15:32:21.951Z,99494.23
2018-09-18T15:35:26.719Z,99504.16
2018-09-18T15:38:48.855Z,99501.22
2018-09-18T15:41:53.512Z,99504.13
2018-09-18T15:45:28.170Z,99496.38
2018-09-18T15:48:32.698Z,99498.30
2018-09-18T15:51:37.369Z,99503.91
2018-09-18T15:54:42.190Z,99504.41
2018-09-18T15:57:46.833Z,99502.55
2018-09-18T16:00:51.376Z,99512.55
2018-09-18T16:03:56.317Z,99509.77
2018-09-18T16:07:00.951Z,99505.05
2018-09-18T16:10:05.957Z,99506.28
2018-09-18T16:13:10.780Z,99508.34
2018-09-18T16:16:15.422Z,99506.26
2018-09-18T16:19:21.038Z,99505.09
2018-09-18T16:22:25.701Z,99510.29
2018-09-18T16:25:30.369Z,99500.70
2018-09-18T16:28:35.051Z,99511.13
2018-09-18T16:31:39.823Z,99513.23
2018-09-18T16:34:44.544Z,99512.25
2018-09-18T16:37:49.339Z,99509.34
2018-09-18T16:40:54.037Z,99510.88
2018-09-18T16:43:58.969Z,99512.70
2018-09-18T16:47:03.616Z,99511.00
2018-09-18T16:50:08.335Z,99507.87
2018-09-18T16:53:12.983Z,99510.95
2018-09-18T16:56:17.983Z,99511.03
2018-09-18T16:59:22.564Z,99520.16
2018-09-18T17:02:27.357Z,99521.88
2018-09-18T17:05:32.022Z,99523.38
2018-09-18T17:08:36.776Z,99528.19
2018-09-18T17:11:41.444Z,99528.80
2018-09-18T17:14:46.204Z,99524.30
2018-09-18T17:17:50.828Z,99528.83
2018-09-18T17:21:18.664Z,99532.78
2018-09-18T17:24:23.407Z,99531.48
2018-09-18T17:27:28.127Z,99536.27
2018-09-18T17:30:32.859Z,99536.47
2018-09-18T17:33:37.730Z,99539.98
2018-09-18T17:36:42.494Z,99546.53
2018-09-18T17:39:47.510Z,99547.41
2018-09-18T17:42:52.117Z,99556.62
2018-09-18T17:45:56.805Z,99555.99
2018-09-18T17:49:01.497Z,99555.16
2018-09-18T17:52:06.200Z,99568.48
2018-09-18T17:55:10.934Z,99576.66
2018-09-18T17:58:15.673Z,99572.31
2018-09-18T18:01:20.455Z,99573.10
2018-09-18T18:04:25.028Z,99572.02
2018-09-18T18:07:29.620Z,99574.78
2018-09-18T18:10:34.274Z,99585.17
2018-09-18T18:13:39.045Z,99582.22
2018-09-18T18:16:43.754Z,99584.92
2018-09-18T18:19:48.397Z,99594.44
2018-09-18T18:22:52.967Z,99603.09
2018-09-18T18:25:57.677Z,99611.99
2018-09-18T18:29:02.341Z,99616.06
2018-09-18T18:32:07.710Z,99618.92
2018-09-18T18:35:12.325Z,99627.03
2018-09-18T18:38:17.201Z,99626.33
2018-09-18T18:41:21.848Z,99632.73
2018-09-18T18:44:26.585Z,99633.77
2018-09-18T18:47:31.359Z,99643.30
2018-09-18T18:50:35.981Z,99644.98
2018-09-18T18:53:40.634Z,99639.36
2018-09-18T18:56:45.296Z,99646.88
2018-09-18T18:59:50.211Z,99653.52
2018-09-18T19:02:55.003Z,99656.02
2018-09-18T19:05:59.883Z,99658.56
2018-09-18T19:09:06.325Z,99662.16
2018-09-18T19:12:11.136Z,99663.83
2018-09-18T19:15:15.935Z,99671.55
2018-09-18T19:18:20.776Z,99677.37
2018-09-18T19:21:25.691Z,99683.14
2018-09-18T19:24:30.490Z,99687.04
2018-09-18T19:27:35.198Z,99685.78
2018-09-18T19:30:40.084Z,99687.44
2018-09-18T19:33:44.850Z,99689.63
2018-09-18T19:36:49.829Z,99687.46
2018-09-18T19:39:54.726Z,99685.53
2018-09-18T19:43:00.341Z,99687.78
2018-09-18T19:46:05.160Z,99697.94
2018-09-18T19:49:09.987Z,99690.03
2018-09-18T19:52:14.714Z,99688.95
2018-09-18T19:55:19.359Z,99688.16
2018-09-18T19:58:24.151Z,99696.41
2018-09-18T20:01:28.793Z,99692.02
2018-09-18T20:04:33.564Z,99692.87
2018-09-18T20:07:38.267Z,99697.23
2018-09-18T20:10:42.965Z,99694.23
2018-09-18T20:13:47.822Z,99700.78
2018-09-18T20:16:52.594Z,99699.16
2018-09-18T20:19:57.478Z,99705.98
2018-09-18T20:23:02.300Z,99705.73
2018-09-18T20:26:07.262Z,99707.35
2018-09-18T20:29:11.865Z,99713.38
2018-09-18T20:32:16.726Z,99710.94
2018-09-18T20:35:21.398Z,99712.84
2018-09-18T20:38:26.487Z,99713.35
2018-09-18T20:41:31.280Z,99720.16
2018-09-18T20:44:35.948Z,99728.33
2018-09-18T20:47:40.541Z,99736.80
2018-09-18T20:50:45.524Z,99736.52
2018-09-18T20:53:50.257Z,99738.70
2018-09-18T20:56:54.942Z,99744.98
2018-09-18T20:59:59.765Z,99755.08
2018-09-18T21:03:04.652Z,99750.95
2018-09-18T21:06:09.771Z,99755.55
2018-09-18T21:09:14.455Z,99756.34
2018-09-18T21:12:19.776Z,99763.42
2018-09-18T21:15:24.743Z,99763.39
2018-09-18T21:18:29.670Z,99774.56
2018-09-18T21:21:34.440Z,99772.35
2018-09-18T21:24:39.443Z,99775.63
2018-09-18T21:27:45.674Z,99769.41
2018-09-18T21:30:50.763Z,99777.01
2018-09-18T21:33:55.489Z,99768.80
2018-09-18T21:37:00.244Z,99777.80
2018-09-18T21:40:05.246Z,99779.14
2018-09-18T21:43:15.121Z,99777.98
2018-09-18T21:46:19.826Z,99776.91
2018-09-18T21:49:24.690Z,99779.08
2018-09-18T21:52:29.312Z,99787.50
2018-09-18T21:55:34.250Z,99789.36
2018-09-18T21:58:38.871Z,99784.70
2018-09-18T22:01:43.987Z,99792.08
2018-09-18T22:04:48.685Z,99791.74
2018-09-18T22:07:53.491Z,99787.08
2018-09-18T22:10:58.362Z,99786.73
2018-09-18T22:14:03.384Z,99782.62
2018-09-18T22:17:08.001Z,99787.17
2018-09-18T22:20:12.905Z,99784.69
2018-09-18T22:23:17.517Z,99776.17
2018-09-18T22:26:22.667Z,99786.23
2018-09-18T22:29:28.187Z,99783.47
2018-09-18T22:32:33.204Z,99787.75
2018-09-18T22:35:37.873Z,99789.34
2018-09-18T22:38:42.501Z,99793.89
2018-09-18T22:41:47.257Z,99790.95
2018-09-18T22:44:52.937Z,99796.25
2018-09-18T22:47:58.327Z,99794.89
2018-09-18T22:51:03.120Z,99793.53
2018-09-18T22:54:07.853Z,99792.44
2018-09-18T22:57:12.680Z,99789.94
2018-09-18T23:00:17.262Z,99796.39
2018-09-18T23:03:22.498Z,99793.42
2018-09-18T23:06:27.198Z,99798.30
2018-09-18T23:09:32.118Z,99800.93
2018-09-18T23:12:36.709Z,99806.64
2018-09-18T23:15:41.329Z,99803.65
2018-09-18T23:18:46.080Z,99805.19
2018-09-18T23:21:50.715Z,99808.77
2018-09-18T23:24:55.315Z,99818.20
2018-09-18T23:28:00.169Z,99821.43
2018-09-18T23:31:05.299Z,99824.12
2018-09-18T23:34:10.185Z,99818.27
2018-09-18T23:37:14.747Z,99821.40
2018-09-18T23:40:19.401Z,99818.13
2018-09-18T23:43:23.998Z,99815.68
2018-09-18T23:46:28.732Z,99825.64
2018-09-18T23:49:33.484Z,99825.41
2018-09-18T23:52:38.151Z,99823.90
2018-09-18T23:55:42.979Z,99819.00
2018-09-18T23:58:47.945Z,99819.81
